Terminal Aerodrome Forecast
Issued by NWS

Home | Current Version | Previous Version | Text Only | Print | Product List | Glossary On
Versions: 1 2 3 4 5 6 7 8 9 10 11 12 13
000
FTUS42 KTBW 021733
TAFPIE
TAF
KPIE 021733Z 0218/0318 26006KT P6SM FEW030 SCT250
     FM022100 29008KT P6SM SCT250
     FM030100 VRB03KT P6SM SCT250
     FM031600 30006KT P6SM FEW020 SCT250=

USA.gov is the U.S. government's official web portal to all federal, state and local government web resources and services.